Time;durP1;ratioP1;P1;durP2;ratioP2;P2;SDS_P1;SDS_P2;PMS_P1;PMS_P2;Temp;Humidity;BMP_temperature;BMP_pressure;BME280_temperature;BME280_humidity;BME280_pressure;Samples;Min_cycle;Max_cycle;Signal;HPM_P1;HPM_P2
2023/07/24 00:02:14;;;;;;;12.25;4.55;;;;;;;;;;5225239;28;20064;-72
2023/07/24 00:04:44;;;;;;;10.52;5.50;;;;;;;;;;5225761;28;20027;-72
2023/07/24 00:07:14;;;;;;;12.82;5.00;;;;;;;;;;5225302;28;20022;-71
2023/07/24 00:09:45;;;;;;;10.18;4.93;;;;;;;;;;5225487;28;20048;-72
2023/07/24 00:12:15;;;;;;;12.75;4.60;;;;;;;;;;5225699;28;20032;-72
2023/07/24 00:14:45;;;;;;;11.45;5.07;;;;;;;;;;5225215;28;20025;-71
2023/07/24 00:17:16;;;;;;;11.57;5.43;;;;;;;;;;5224761;28;20017;-71
2023/07/24 00:19:46;;;;;;;14.00;4.80;;;;;;;;;;5225363;28;20590;-72
2023/07/24 00:22:17;;;;;;;12.52;5.55;;;;;;;;;;5225055;28;20043;-72
2023/07/24 00:24:47;;;;;;;9.43;4.80;;;;;;;;;;5225415;28;20092;-71
2023/07/24 00:27:17;;;;;;;11.32;5.25;;;;;;;;;;5224324;28;20144;-72
2023/07/24 00:29:48;;;;;;;11.98;5.20;;;;;;;;;;5225188;28;20533;-71
2023/07/24 00:32:18;;;;;;;15.65;6.13;;;;;;;;;;5225098;28;20037;-72
2023/07/24 00:34:48;;;;;;;10.80;5.07;;;;;;;;;;5225175;28;20021;-72
2023/07/24 00:37:19;;;;;;;16.52;5.25;;;;;;;;;;5224599;28;20093;-72
2023/07/24 00:39:49;;;;;;;12.02;5.55;;;;;;;;;;5224027;28;20017;-72
2023/07/24 00:42:19;;;;;;;12.65;5.38;;;;;;;;;;5224857;28;20549;-72
2023/07/24 00:44:50;;;;;;;12.40;5.50;;;;;;;;;;5225333;28;20029;-71
2023/07/24 00:47:20;;;;;;;19.58;5.57;;;;;;;;;;5224687;28;20028;-72
2023/07/24 00:49:51;;;;;;;19.10;5.95;;;;;;;;;;5224769;28;20014;-72
2023/07/24 00:52:21;;;;;;;14.65;6.97;;;;;;;;;;5224478;28;20021;-71
2023/07/24 00:54:51;;;;;;;10.38;5.70;;;;;;;;;;5224872;28;20055;-72
2023/07/24 00:57:22;;;;;;;15.57;6.35;;;;;;;;;;5224378;28;20163;-72
2023/07/24 00:59:53;;;;;;;17.52;6.72;;;;;;;;;;5224092;28;20021;-72
2023/07/24 01:02:25;;;;;;;17.02;6.95;;;;;;;;;;5224384;28;20029;-72
2023/07/24 01:04:55;;;;;;;14.32;6.72;;;;;;;;;;5223817;28;20013;-72
2023/07/24 01:07:25;;;;;;;13.25;6.55;;;;;;;;;;5223742;28;20577;-72
2023/07/24 01:09:56;;;;;;;17.17;6.18;;;;;;;;;;5224144;28;20021;-72
2023/07/24 01:12:32;;;;;;;16.98;6.93;;;;;;;;;;5224260;28;20151;-72
2023/07/24 01:15:08;;;;;;;21.27;6.90;;;;;;;;;;5224078;28;20021;-72
2023/07/24 01:17:41;;;;;;;13.02;6.93;;;;;;;;;;5223646;28;20100;-72
2023/07/24 01:20:15;;;;;;;23.23;7.00;;;;;;;;;;5223964;28;20020;-71
2023/07/24 01:22:46;;;;;;;18.70;7.78;;;;;;;;;;5223810;28;20159;-72
2023/07/24 01:25:22;;;;;;;15.32;6.68;;;;;;;;;;5223814;28;20096;-72
2023/07/24 01:27:52;;;;;;;20.58;6.65;;;;;;;;;;5223044;28;20614;-72
2023/07/24 01:30:23;;;;;;;17.08;6.90;;;;;;;;;;5223750;28;20103;-72
2023/07/24 01:32:53;;;;;;;17.55;6.20;;;;;;;;;;5223514;28;20414;-72
2023/07/24 01:35:24;;;;;;;15.23;6.82;;;;;;;;;;5223333;28;20047;-72
2023/07/24 01:37:56;;;;;;;17.50;7.18;;;;;;;;;;5223261;28;20025;-72
2023/07/24 01:40:26;;;;;;;20.42;7.65;;;;;;;;;;5223060;28;20060;-72
2023/07/24 01:42:59;;;;;;;20.08;8.23;;;;;;;;;;5223479;28;20059;-72
2023/07/24 01:45:29;;;;;;;20.88;7.07;;;;;;;;;;5223351;28;20096;-72
2023/07/24 01:47:59;;;;;;;19.90;8.05;;;;;;;;;;5223177;28;20017;-72
2023/07/24 01:50:30;;;;;;;16.35;6.65;;;;;;;;;;5223007;28;20017;-72
2023/07/24 01:53:00;;;;;;;18.23;8.18;;;;;;;;;;5222423;28;20473;-73
2023/07/24 01:55:30;;;;;;;31.70;8.98;;;;;;;;;;5223101;28;20025;-73
2023/07/24 01:58:01;;;;;;;16.52;7.40;;;;;;;;;;5223093;28;20021;-73
2023/07/24 02:00:31;;;;;;;15.65;6.30;;;;;;;;;;5223327;28;20032;-73
2023/07/24 02:03:01;;;;;;;12.25;5.35;;;;;;;;;;5184683;28;1105757;-73
2023/07/24 02:05:32;;;;;;;8.27;3.95;;;;;;;;;;5223967;28;20021;-73
2023/07/24 02:08:02;;;;;;;8.98;4.10;;;;;;;;;;5223479;28;20021;-73
2023/07/24 02:10:36;;;;;;;11.38;5.13;;;;;;;;;;5223917;28;20013;-72
2023/07/24 02:13:07;;;;;;;12.10;4.82;;;;;;;;;;5223988;28;20028;-73
2023/07/24 02:15:37;;;;;;;11.70;4.60;;;;;;;;;;5223265;28;20049;-73
2023/07/24 02:18:08;;;;;;;13.43;4.82;;;;;;;;;;5223575;28;20068;-73
2023/07/24 02:20:38;;;;;;;8.73;4.45;;;;;;;;;;5223909;28;20029;-73
2023/07/24 02:23:08;;;;;;;10.95;4.75;;;;;;;;;;5223700;28;20025;-72
2023/07/24 02:25:38;;;;;;;8.10;3.58;;;;;;;;;;5223736;28;20078;-72
2023/07/24 02:28:09;;;;;;;5.63;3.03;;;;;;;;;;5223303;28;20029;-73
2023/07/24 02:30:39;;;;;;;7.40;3.17;;;;;;;;;;5223754;28;20462;-72
2023/07/24 02:33:09;;;;;;;5.63;2.92;;;;;;;;;;5223811;28;20017;-72
2023/07/24 02:35:40;;;;;;;5.90;3.33;;;;;;;;;;5223624;28;20056;-73
2023/07/24 02:38:11;;;;;;;5.85;3.10;;;;;;;;;;5223811;28;20437;-73
2023/07/24 02:40:41;;;;;;;7.03;3.83;;;;;;;;;;5223153;28;20028;-72
2023/07/24 02:43:11;;;;;;;6.55;2.97;;;;;;;;;;5223590;28;20487;-72
2023/07/24 02:45:42;;;;;;;5.53;2.80;;;;;;;;;;5223307;28;20049;-72
2023/07/24 02:48:12;;;;;;;8.65;3.22;;;;;;;;;;5223922;28;20100;-72
2023/07/24 02:50:42;;;;;;;5.00;2.58;;;;;;;;;;5223540;28;20113;-72
2023/07/24 02:53:12;;;;;;;6.43;3.15;;;;;;;;;;5223594;28;20032;-72
2023/07/24 02:55:43;;;;;;;7.18;2.95;;;;;;;;;;5223674;28;20051;-72
2023/07/24 02:58:14;;;;;;;4.93;2.70;;;;;;;;;;5223794;28;20096;-72
2023/07/24 03:00:44;;;;;;;4.70;2.88;;;;;;;;;;5224032;28;20036;-72
2023/07/24 03:03:14;;;;;;;8.60;2.60;;;;;;;;;;5225197;28;20064;-72
2023/07/24 03:05:44;;;;;;;3.95;2.58;;;;;;;;;;5227057;28;20081;-72
2023/07/24 03:08:15;;;;;;;7.85;2.85;;;;;;;;;;5227506;28;20024;-72
2023/07/24 03:10:45;;;;;;;7.10;3.38;;;;;;;;;;5227776;28;20009;-72
2023/07/24 03:13:15;;;;;;;8.07;2.50;;;;;;;;;;5227220;28;20025;-72
2023/07/24 03:15:53;;;;;;;8.52;3.63;;;;;;;;;;5226880;28;20389;-71
2023/07/24 03:18:24;;;;;;;4.68;3.03;;;;;;;;;;5226662;28;20428;-71
2023/07/24 03:20:56;;;;;;;5.72;3.20;;;;;;;;;;5226903;28;20082;-72
2023/07/24 03:23:27;;;;;;;8.57;3.58;;;;;;;;;;5226813;28;20429;-71
2023/07/24 03:25:57;;;;;;;5.50;3.22;;;;;;;;;;5226454;28;20040;-71
2023/07/24 03:28:27;;;;;;;14.52;3.85;;;;;;;;;;5226568;28;20092;-73
2023/07/24 03:30:58;;;;;;;6.82;3.45;;;;;;;;;;5226680;28;20495;-72
2023/07/24 03:33:28;;;;;;;5.63;3.63;;;;;;;;;;5226886;28;20541;-72
2023/07/24 03:35:58;;;;;;;8.57;3.60;;;;;;;;;;5226171;28;20025;-72
2023/07/24 03:38:29;;;;;;;5.95;2.83;;;;;;;;;;5225334;28;20070;-72
2023/07/24 03:40:59;;;;;;;9.52;3.60;;;;;;;;;;5226252;28;20036;-72
2023/07/24 03:43:29;;;;;;;5.85;3.33;;;;;;;;;;5226213;28;20029;-72
2023/07/24 03:45:59;;;;;;;6.43;3.30;;;;;;;;;;5226210;28;20386;-72
2023/07/24 03:48:30;;;;;;;6.57;3.45;;;;;;;;;;5226234;28;20024;-72
2023/07/24 03:51:00;;;;;;;10.23;4.03;;;;;;;;;;5226411;28;20013;-72
2023/07/24 03:53:30;;;;;;;6.55;3.38;;;;;;;;;;5225916;28;20036;-72
2023/07/24 03:56:01;;;;;;;8.13;3.30;;;;;;;;;;5225762;28;20012;-72
2023/07/24 03:58:31;;;;;;;7.05;3.30;;;;;;;;;;5225902;28;20025;-72
2023/07/24 04:01:01;;;;;;;8.75;3.53;;;;;;;;;;5224903;28;20368;-72
2023/07/24 04:03:32;;;;;;;5.85;3.30;;;;;;;;;;5225763;28;20029;-72
2023/07/24 04:06:02;;;;;;;5.75;3.10;;;;;;;;;;5225420;28;20390;-72
2023/07/24 04:08:32;;;;;;;6.18;3.38;;;;;;;;;;5226073;28;20024;-72
2023/07/24 04:11:04;;;;;;;8.45;3.15;;;;;;;;;;5226469;28;20021;-72
2023/07/24 04:13:34;;;;;;;5.78;3.00;;;;;;;;;;5226011;28;20036;-71
2023/07/24 04:16:05;;;;;;;5.70;3.17;;;;;;;;;;5224680;28;20025;-72
2023/07/24 04:18:35;;;;;;;6.15;2.92;;;;;;;;;;5225256;28;20024;-72
2023/07/24 04:21:06;;;;;;;4.50;2.80;;;;;;;;;;5225807;28;20017;-71
2023/07/24 04:23:37;;;;;;;5.35;3.30;;;;;;;;;;5225756;28;20029;-72
2023/07/24 04:26:07;;;;;;;4.57;2.80;;;;;;;;;;5225460;28;20075;-71
2023/07/24 04:28:37;;;;;;;6.30;3.50;;;;;;;;;;5225584;28;20055;-71
2023/07/24 04:31:07;;;;;;;6.13;2.78;;;;;;;;;;5225124;28;20017;-72
2023/07/24 04:33:38;;;;;;;4.63;2.55;;;;;;;;;;5225716;28;20463;-72
2023/07/24 04:36:08;;;;;;;4.07;2.55;;;;;;;;;;5225027;28;20032;-71
2023/07/24 04:38:39;;;;;;;3.38;2.58;;;;;;;;;;5225186;28;20441;-71
2023/07/24 04:41:09;;;;;;;5.13;2.70;;;;;;;;;;5225365;28;20107;-72
2023/07/24 04:43:39;;;;;;;4.30;2.70;;;;;;;;;;5224903;28;20426;-72
2023/07/24 04:46:09;;;;;;;5.03;2.83;;;;;;;;;;5224908;28;20028;-72
2023/07/24 04:48:40;;;;;;;5.50;2.50;;;;;;;;;;5225011;28;20023;-72
2023/07/24 04:51:10;;;;;;;4.60;2.50;;;;;;;;;;5225303;28;20016;-71
2023/07/24 04:53:40;;;;;;;6.65;2.65;;;;;;;;;;5225096;28;20027;-72
2023/07/24 04:56:11;;;;;;;4.63;2.65;;;;;;;;;;5224479;28;20021;-72
2023/07/24 04:58:41;;;;;;;6.53;3.00;;;;;;;;;;5224902;28;20718;-72
2023/07/24 05:01:11;;;;;;;3.53;2.35;;;;;;;;;;5225078;28;20024;-72
2023/07/24 05:03:41;;;;;;;4.03;2.42;;;;;;;;;;5224728;28;20106;-72
2023/07/24 05:06:12;;;;;;;7.72;2.63;;;;;;;;;;5224488;28;20052;-72
2023/07/24 05:08:42;;;;;;;5.93;2.90;;;;;;;;;;5233161;28;20088;-72
2023/07/24 05:11:12;;;;;;;4.65;2.83;;;;;;;;;;5224617;28;20451;-72
2023/07/24 05:13:42;;;;;;;5.72;2.78;;;;;;;;;;5224972;28;20016;-72
2023/07/24 05:16:13;;;;;;;4.30;2.55;;;;;;;;;;5224255;28;20052;-72
2023/07/24 05:18:43;;;;;;;4.60;2.88;;;;;;;;;;5224447;28;20103;-72
2023/07/24 05:21:13;;;;;;;5.72;3.05;;;;;;;;;;5224403;28;20017;-72
2023/07/24 05:23:44;;;;;;;3.50;2.75;;;;;;;;;;5224811;28;20546;-71
2023/07/24 05:26:14;;;;;;;8.73;3.05;;;;;;;;;;5223940;28;20034;-71
2023/07/24 05:28:45;;;;;;;7.90;2.92;;;;;;;;;;5224376;28;20020;-72
2023/07/24 05:31:15;;;;;;;7.20;3.40;;;;;;;;;;5224405;28;20020;-72
2023/07/24 05:33:46;;;;;;;4.97;2.83;;;;;;;;;;5224576;28;20051;-72
2023/07/24 05:36:16;;;;;;;5.65;2.97;;;;;;;;;;5222884;28;20163;-72
2023/07/24 05:38:46;;;;;;;4.90;3.10;;;;;;;;;;5224473;28;20383;-72
2023/07/24 05:41:16;;;;;;;7.05;3.53;;;;;;;;;;5224458;28;20025;-72
2023/07/24 05:43:47;;;;;;;7.60;3.38;;;;;;;;;;5224216;28;20028;-72
2023/07/24 05:46:17;;;;;;;7.72;3.70;;;;;;;;;;5223619;28;20021;-72
2023/07/24 05:48:48;;;;;;;5.97;3.15;;;;;;;;;;5224002;28;20040;-72
2023/07/24 05:51:18;;;;;;;4.45;2.67;;;;;;;;;;5224433;28;20036;-72
2023/07/24 05:53:49;;;;;;;6.75;2.70;;;;;;;;;;5224051;28;20036;-72
2023/07/24 05:56:19;;;;;;;6.43;2.88;;;;;;;;;;5223764;28;20163;-72
2023/07/24 05:58:49;;;;;;;4.22;2.78;;;;;;;;;;5223650;28;20108;-72
2023/07/24 06:01:20;;;;;;;4.03;2.65;;;;;;;;;;5224017;28;20070;-72
2023/07/24 06:03:50;;;;;;;4.22;2.72;;;;;;;;;;5223841;28;20082;-72
2023/07/24 06:06:20;;;;;;;4.63;2.22;;;;;;;;;;5224067;28;20095;-71
2023/07/24 06:08:51;;;;;;;4.43;2.50;;;;;;;;;;5223764;28;20021;-72
2023/07/24 06:11:22;;;;;;;5.60;2.50;;;;;;;;;;5223627;28;20024;-72
2023/07/24 06:13:53;;;;;;;4.85;2.63;;;;;;;;;;5224231;28;20028;-72
2023/07/24 06:16:23;;;;;;;3.65;2.30;;;;;;;;;;5223427;28;20029;-72
2023/07/24 06:18:53;;;;;;;4.22;2.75;;;;;;;;;;5223942;28;20021;-72
2023/07/24 06:21:23;;;;;;;4.15;2.63;;;;;;;;;;5223669;28;20028;-72
2023/07/24 06:23:54;;;;;;;7.82;3.08;;;;;;;;;;5224012;28;20017;-72
2023/07/24 06:26:24;;;;;;;5.05;2.33;;;;;;;;;;5223592;28;20059;-72
2023/07/24 06:28:54;;;;;;;3.90;2.25;;;;;;;;;;5223668;28;20421;-72
2023/07/24 06:31:25;;;;;;;4.50;2.50;;;;;;;;;;5222703;28;20021;-72
2023/07/24 06:33:55;;;;;;;4.85;2.47;;;;;;;;;;5222279;28;20534;-72
2023/07/24 06:36:26;;;;;;;4.35;2.75;;;;;;;;;;5223398;28;20049;-72
2023/07/24 06:38:56;;;;;;;3.88;2.70;;;;;;;;;;5226221;28;20029;-71
2023/07/24 06:41:27;;;;;;;3.92;2.53;;;;;;;;;;5227777;28;20393;-71
2023/07/24 06:43:57;;;;;;;3.03;2.30;;;;;;;;;;5227607;28;20021;-72
2023/07/24 06:46:27;;;;;;;6.55;2.30;;;;;;;;;;5227027;28;20419;-72
2023/07/24 06:48:57;;;;;;;5.60;2.53;;;;;;;;;;5227368;28;20025;-72
2023/07/24 06:51:28;;;;;;;5.70;2.38;;;;;;;;;;5227751;28;20100;-72
2023/07/24 06:53:58;;;;;;;5.45;2.70;;;;;;;;;;5227535;28;20021;-72
2023/07/24 06:56:28;;;;;;;5.15;2.92;;;;;;;;;;5227032;28;20025;-72
2023/07/24 06:58:59;;;;;;;6.30;2.97;;;;;;;;;;5226820;28;20410;-72
2023/07/24 07:01:29;;;;;;;5.38;3.00;;;;;;;;;;5227114;28;20021;-72
2023/07/24 07:03:59;;;;;;;5.78;2.65;;;;;;;;;;5227544;28;20409;-72
2023/07/24 07:06:29;;;;;;;5.57;2.72;;;;;;;;;;5226761;28;20067;-71
2023/07/24 07:09:00;;;;;;;5.15;2.75;;;;;;;;;;5226987;28;20017;-72
2023/07/24 07:11:30;;;;;;;6.90;2.88;;;;;;;;;;5226527;28;20052;-72
2023/07/24 07:14:00;;;;;;;7.03;3.42;;;;;;;;;;5227233;28;20335;-71
2023/07/24 07:16:30;;;;;;;4.13;2.75;;;;;;;;;;5226605;28;20025;-72
2023/07/24 07:19:01;;;;;;;3.55;2.47;;;;;;;;;;5226962;28;20035;-72
2023/07/24 07:21:31;;;;;;;7.22;2.83;;;;;;;;;;5226892;28;20021;-72
2023/07/24 07:24:01;;;;;;;3.45;2.00;;;;;;;;;;5226233;28;20478;-73
2023/07/24 07:26:32;;;;;;;4.85;2.50;;;;;;;;;;5226340;28;20060;-72
2023/07/24 07:29:02;;;;;;;4.28;2.25;;;;;;;;;;5226691;28;20433;-73
2023/07/24 07:31:33;;;;;;;3.92;1.90;;;;;;;;;;5227104;28;20024;-73
2023/07/24 07:34:03;;;;;;;8.27;2.35;;;;;;;;;;5226536;28;20021;-72
2023/07/24 07:36:33;;;;;;;3.42;2.30;;;;;;;;;;5225852;28;20036;-73
2023/07/24 07:39:04;;;;;;;6.40;2.30;;;;;;;;;;5226563;28;20085;-72
2023/07/24 07:41:34;;;;;;;8.10;3.10;;;;;;;;;;5226801;28;20029;-72
2023/07/24 07:44:04;;;;;;;4.18;2.50;;;;;;;;;;5226240;28;20028;-72
2023/07/24 07:46:34;;;;;;;5.05;3.13;;;;;;;;;;5226340;28;20032;-72
2023/07/24 07:49:05;;;;;;;7.57;2.70;;;;;;;;;;5225690;28;20040;-72
2023/07/24 07:51:35;;;;;;;7.75;2.85;;;;;;;;;;5226369;28;20025;-72
2023/07/24 07:54:05;;;;;;;4.72;3.15;;;;;;;;;;5225266;28;20040;-72
2023/07/24 07:56:36;;;;;;;6.25;2.63;;;;;;;;;;5225733;28;20139;-72
2023/07/24 07:59:06;;;;;;;4.00;2.83;;;;;;;;;;5226252;28;20052;-73
2023/07/24 08:01:39;;;;;;;3.03;2.47;;;;;;;;;;5225632;28;20029;-72
2023/07/24 08:04:09;;;;;;;5.25;2.67;;;;;;;;;;5226106;28;20021;-73
2023/07/24 08:06:39;;;;;;;2.83;2.30;;;;;;;;;;5225491;28;20511;-72
2023/07/24 08:09:10;;;;;;;6.32;2.80;;;;;;;;;;5225991;28;20032;-73
2023/07/24 08:11:40;;;;;;;5.55;2.53;;;;;;;;;;5225926;28;20017;-73
2023/07/24 08:14:10;;;;;;;6.68;2.78;;;;;;;;;;5225488;28;20060;-73
2023/07/24 08:16:40;;;;;;;4.65;2.70;;;;;;;;;;5225355;28;20040;-73
2023/07/24 08:19:11;;;;;;;4.07;2.40;;;;;;;;;;5225853;28;20401;-73
2023/07/24 08:21:41;;;;;;;6.25;2.70;;;;;;;;;;5225735;28;20028;-73
2023/07/24 08:24:11;;;;;;;4.13;2.53;;;;;;;;;;5225528;28;20060;-72
2023/07/24 08:26:42;;;;;;;7.68;3.25;;;;;;;;;;5224908;28;20027;-72
2023/07/24 08:29:12;;;;;;;3.72;2.28;;;;;;;;;;5225394;28;20024;-72
2023/07/24 08:31:42;;;;;;;4.75;2.30;;;;;;;;;;5225517;28;20028;-72
2023/07/24 08:34:12;;;;;;;7.03;2.45;;;;;;;;;;5225377;28;20498;-72
2023/07/24 08:36:43;;;;;;;5.50;2.63;;;;;;;;;;5224934;28;20103;-72
2023/07/24 08:39:13;;;;;;;3.90;2.30;;;;;;;;;;5224970;28;20781;-72
2023/07/24 08:41:43;;;;;;;4.22;2.67;;;;;;;;;;5225622;28;20374;-72
2023/07/24 08:44:14;;;;;;;6.35;2.60;;;;;;;;;;5225311;28;20033;-72
2023/07/24 08:46:46;;;;;;;3.47;2.50;;;;;;;;;;5224830;28;20067;-72
2023/07/24 08:49:16;;;;;;;4.72;2.08;;;;;;;;;;5225100;28;20727;-72
2023/07/24 08:51:47;;;;;;;4.63;2.33;;;;;;;;;;5225186;28;20027;-72
2023/07/24 08:54:18;;;;;;;4.43;2.92;;;;;;;;;;5225216;28;20050;-72
2023/07/24 08:56:50;;;;;;;3.00;2.25;;;;;;;;;;5224511;28;20017;-72
2023/07/24 08:59:21;;;;;;;20.83;4.90;;;;;;;;;;5225153;28;20021;-72
2023/07/24 09:01:52;;;;;;;7.53;3.90;;;;;;;;;;5223914;28;20047;-72
2023/07/24 09:04:22;;;;;;;15.02;3.67;;;;;;;;;;5224892;28;20066;-72
2023/07/24 09:06:53;;;;;;;9.63;3.45;;;;;;;;;;5224580;28;20025;-72
2023/07/24 09:09:23;;;;;;;6.13;3.15;;;;;;;;;;5224802;28;20017;-72
2023/07/24 09:11:54;;;;;;;5.20;3.05;;;;;;;;;;5224820;28;20529;-72
2023/07/24 09:14:25;;;;;;;3.55;2.35;;;;;;;;;;5224380;28;20053;-72
2023/07/24 09:17:12;;;;;;;7.30;3.22;;;;;;;;;;5224747;28;20681;-72
2023/07/24 09:19:43;;;;;;;4.57;2.40;;;;;;;;;;5224503;28;20431;-72
2023/07/24 09:22:14;;;;;;;7.75;2.80;;;;;;;;;;5224798;28;20082;-72
2023/07/24 09:25:03;;;;;;;6.65;2.30;;;;;;;;;;5224442;28;20087;-72
2023/07/24 09:27:33;;;;;;;3.83;2.85;;;;;;;;;;5224104;28;20021;-71
2023/07/24 09:30:11;;;;;;;6.95;2.75;;;;;;;;;;5224485;28;20078;-72
2023/07/24 09:32:42;;;;;;;5.53;3.40;;;;;;;;;;5224334;28;20099;-72
2023/07/24 09:35:28;;;;;;;6.22;3.20;;;;;;;;;;5224000;28;20108;-72
2023/07/24 09:38:13;;;;;;;8.98;4.10;;;;;;;;;;5212088;28;20052;-72
2023/07/24 09:40:45;;;;;;;4.90;3.25;;;;;;;;;;5224206;28;20471;-72
2023/07/24 09:43:17;;;;;;;5.53;3.55;;;;;;;;;;5224371;28;20067;-73
2023/07/24 09:45:48;;;;;;;3.67;2.60;;;;;;;;;;5223356;28;20013;-72
2023/07/24 09:48:19;;;;;;;4.15;3.10;;;;;;;;;;5224371;28;20025;-72
2023/07/24 09:50:52;;;;;;;6.03;2.78;;;;;;;;;;5224054;28;20119;-72
2023/07/24 09:53:28;;;;;;;4.43;2.72;;;;;;;;;;5224361;28;20502;-72
2023/07/24 09:56:01;;;;;;;5.25;3.25;;;;;;;;;;5223713;28;20382;-72
2023/07/24 09:58:34;;;;;;;5.38;3.10;;;;;;;;;;5223979;28;20386;-72
2023/07/24 10:01:06;;;;;;;5.90;2.80;;;;;;;;;;5224201;28;20095;-72
2023/07/24 10:03:52;;;;;;;4.72;3.15;;;;;;;;;;5223869;28;20071;-72
2023/07/24 10:06:23;;;;;;;7.88;3.60;;;;;;;;;;5223443;28;20521;-72
2023/07/24 10:08:54;;;;;;;5.80;3.38;;;;;;;;;;5223796;28;20013;-72
2023/07/24 10:11:24;;;;;;;7.78;3.35;;;;;;;;;;5224029;28;20024;-73
2023/07/24 10:13:55;;;;;;;4.70;3.22;;;;;;;;;;5227202;28;20072;-73
2023/07/24 10:16:25;;;;;;;9.38;4.07;;;;;;;;;;5226457;28;20021;-73
2023/07/24 10:18:56;;;;;;;5.22;3.10;;;;;;;;;;5227819;28;20394;-72
2023/07/24 10:21:27;;;;;;;6.93;3.63;;;;;;;;;;5228048;28;20553;-72
2023/07/24 10:23:59;;;;;;;7.32;3.50;;;;;;;;;;5227978;28;20032;-73
2023/07/24 10:26:30;;;;;;;5.72;3.97;;;;;;;;;;5227590;28;20020;-73
2023/07/24 10:29:01;;;;;;;4.18;3.20;;;;;;;;;;5227622;28;20015;-73
2023/07/24 10:31:31;;;;;;;5.85;3.45;;;;;;;;;;5226522;28;20029;-72
2023/07/24 10:34:19;;;;;;;8.65;4.00;;;;;;;;;;5228004;28;20025;-73
2023/07/24 10:36:50;;;;;;;5.55;3.42;;;;;;;;;;5227506;28;20108;-72
2023/07/24 10:39:20;;;;;;;6.75;3.15;;;;;;;;;;5227818;28;20456;-73
2023/07/24 10:41:50;;;;;;;7.13;3.40;;;;;;;;;;5227304;28;20028;-72
2023/07/24 10:44:30;;;;;;;5.00;3.13;;;;;;;;;;5227619;28;20474;-72
2023/07/24 10:47:00;;;;;;;4.18;2.50;;;;;;;;;;5227274;28;20013;-73
2023/07/24 10:49:30;;;;;;;7.53;3.20;;;;;;;;;;5227638;28;20028;-73
2023/07/24 10:52:01;;;;;;;5.55;3.10;;;;;;;;;;5227468;28;20017;-73
2023/07/24 10:54:32;;;;;;;5.55;2.95;;;;;;;;;;5222933;28;20250;-73
2023/07/24 10:57:02;;;;;;;5.95;3.03;;;;;;;;;;5226781;28;20024;-72
2023/07/24 10:59:49;;;;;;;6.53;3.30;;;;;;;;;;5227125;28;20025;-73
2023/07/24 11:02:19;;;;;;;7.03;3.53;;;;;;;;;;5215622;28;20123;-73
2023/07/24 11:04:50;;;;;;;3.83;2.60;;;;;;;;;;5227155;28;20510;-72
2023/07/24 11:07:20;;;;;;;5.22;3.08;;;;;;;;;;5226658;28;20017;-73
2023/07/24 11:09:51;;;;;;;5.10;3.10;;;;;;;;;;5226917;28;20074;-73
2023/07/24 11:12:22;;;;;;;5.30;3.35;;;;;;;;;;5226901;28;20032;-73
2023/07/24 11:14:54;;;;;;;5.30;3.22;;;;;;;;;;5226848;28;20021;-73
2023/07/24 11:17:35;;;;;;;5.22;3.15;;;;;;;;;;5225944;28;20020;-72
2023/07/24 11:20:07;;;;;;;5.47;3.25;;;;;;;;;;5214706;28;20024;-72
2023/07/24 11:22:38;;;;;;;5.35;3.60;;;;;;;;;;5225410;28;20031;-72
2023/07/24 11:25:09;;;;;;;6.00;3.10;;;;;;;;;;5226195;28;20025;-73
2023/07/24 11:27:41;;;;;;;5.53;3.70;;;;;;;;;;5226332;28;20009;-73
2023/07/24 11:30:12;;;;;;;5.82;3.40;;;;;;;;;;5226473;28;20063;-72
2023/07/24 11:32:43;;;;;;;3.90;2.95;;;;;;;;;;5226707;28;20048;-72
2023/07/24 11:35:13;;;;;;;5.35;3.40;;;;;;;;;;5226539;28;20025;-73
2023/07/24 11:37:44;;;;;;;4.80;3.40;;;;;;;;;;5226132;28;20056;-72
2023/07/24 11:40:15;;;;;;;6.43;3.28;;;;;;;;;;5226031;28;20108;-72
2023/07/24 11:42:47;;;;;;;4.68;3.30;;;;;;;;;;5226400;28;20547;-72
2023/07/24 11:45:17;;;;;;;5.05;3.50;;;;;;;;;;5226441;28;20025;-73
2023/07/24 11:47:49;;;;;;;6.03;3.83;;;;;;;;;;5226124;28;20016;-72
2023/07/24 11:50:19;;;;;;;7.63;3.78;;;;;;;;;;5226126;28;20043;-72
2023/07/24 11:52:52;;;;;;;5.68;3.28;;;;;;;;;;5225964;28;20049;-72
2023/07/24 11:55:31;;;;;;;6.72;3.80;;;;;;;;;;5226105;28;20044;-73
2023/07/24 11:58:01;;;;;;;6.57;3.47;;;;;;;;;;5226163;28;20497;-72
2023/07/24 12:00:32;;;;;;;5.28;3.58;;;;;;;;;;5225910;28;20017;-72
2023/07/24 12:03:04;;;;;;;10.98;3.85;;;;;;;;;;5225533;28;20022;-72
2023/07/24 12:05:53;;;;;;;6.90;4.05;;;;;;;;;;5225817;28;20025;-72
2023/07/24 12:08:42;;;;;;;8.18;3.65;;;;;;;;;;5225630;28;20020;-73
2023/07/24 12:11:28;;;;;;;5.90;3.60;;;;;;;;;;5225670;28;20086;-72
2023/07/24 12:13:58;;;;;;;5.43;3.35;;;;;;;;;;5225648;28;20024;-73
2023/07/24 12:16:29;;;;;;;5.53;3.83;;;;;;;;;;5225571;28;20104;-72
2023/07/24 12:18:59;;;;;;;6.30;3.63;;;;;;;;;;5225771;28;20028;-73
2023/07/24 12:21:29;;;;;;;5.63;3.58;;;;;;;;;;5225644;28;20020;-73
2023/07/24 12:24:00;;;;;;;10.02;4.25;;;;;;;;;;5225353;28;20053;-72
2023/07/24 12:26:30;;;;;;;5.43;3.60;;;;;;;;;;5225327;28;20025;-73
2023/07/24 12:29:00;;;;;;;6.32;4.03;;;;;;;;;;5225322;28;20104;-72
2023/07/24 12:31:31;;;;;;;8.00;4.15;;;;;;;;;;5225529;28;20390;-72
2023/07/24 12:34:01;;;;;;;7.35;4.20;;;;;;;;;;5225295;28;20071;-73
2023/07/24 12:36:31;;;;;;;7.35;4.03;;;;;;;;;;5223977;28;20044;-72
2023/07/24 12:39:02;;;;;;;8.65;3.80;;;;;;;;;;5225158;28;20078;-73
2023/07/24 12:41:32;;;;;;;5.22;3.83;;;;;;;;;;5225340;28;20032;-72
2023/07/24 12:44:03;;;;;;;7.20;4.13;;;;;;;;;;5225535;28;20534;-72
2023/07/24 12:46:33;;;;;;;7.40;4.40;;;;;;;;;;5224540;28;20035;-72
2023/07/24 12:49:03;;;;;;;9.25;4.47;;;;;;;;;;5224695;28;20017;-72
2023/07/24 12:51:33;;;;;;;9.52;4.10;;;;;;;;;;5224896;28;20021;-72
2023/07/24 12:54:04;;;;;;;10.18;4.57;;;;;;;;;;5225047;28;20363;-72
2023/07/24 12:56:34;;;;;;;7.68;4.43;;;;;;;;;;5224415;28;20091;-71
2023/07/24 12:59:04;;;;;;;11.65;4.38;;;;;;;;;;5224874;28;20025;-72
2023/07/24 13:01:34;;;;;;;9.30;4.97;;;;;;;;;;5223923;28;20037;-72
2023/07/24 13:04:05;;;;;;;8.27;4.50;;;;;;;;;;5224682;28;20167;-72
2023/07/24 13:06:36;;;;;;;6.05;3.72;;;;;;;;;;5224359;28;20032;-72
2023/07/24 13:09:07;;;;;;;10.10;4.57;;;;;;;;;;5224598;28;20483;-72
2023/07/24 13:11:37;;;;;;;9.75;3.90;;;;;;;;;;5224547;28;20138;-72
2023/07/24 13:14:07;;;;;;;10.60;4.53;;;;;;;;;;5224397;28;20090;-72
2023/07/24 13:16:38;;;;;;;6.65;3.67;;;;;;;;;;5224148;28;20019;-72
2023/07/24 13:19:08;;;;;;;7.18;3.40;;;;;;;;;;5224366;28;20032;-72
2023/07/24 13:21:39;;;;;;;6.22;3.97;;;;;;;;;;5225217;28;20047;-71
2023/07/24 13:24:10;;;;;;;7.05;3.97;;;;;;;;;;5224392;28;20348;-72
2023/07/24 13:26:40;;;;;;;7.82;4.45;;;;;;;;;;5223744;28;20704;-72
2023/07/24 13:29:11;;;;;;;7.47;3.80;;;;;;;;;;5224236;28;20491;-72
2023/07/24 13:31:41;;;;;;;6.15;4.22;;;;;;;;;;5224350;28;20065;-72
2023/07/24 13:34:11;;;;;;;6.95;3.42;;;;;;;;;;5224231;28;20560;-72
2023/07/24 13:36:42;;;;;;;5.10;3.28;;;;;;;;;;5224113;28;20112;-72
2023/07/24 13:39:12;;;;;;;5.68;3.47;;;;;;;;;;5223695;28;20196;-72
2023/07/24 13:41:42;;;;;;;5.00;3.15;;;;;;;;;;5224258;28;20051;-72
2023/07/24 13:44:13;;;;;;;7.10;3.47;;;;;;;;;;5224010;28;20466;-72
2023/07/24 13:46:43;;;;;;;6.05;3.47;;;;;;;;;;5223566;28;20017;-72
2023/07/24 13:49:13;;;;;;;7.22;3.53;;;;;;;;;;5224218;28;20028;-72
2023/07/24 13:51:44;;;;;;;5.82;3.05;;;;;;;;;;5224166;28;20056;-72
2023/07/24 13:54:14;;;;;;;6.18;3.08;;;;;;;;;;5224143;28;20100;-72
2023/07/24 13:56:44;;;;;;;8.98;3.53;;;;;;;;;;5223628;28;20244;-72
2023/07/24 13:59:14;;;;;;;10.15;3.40;;;;;;;;;;5224053;28;20017;-72
2023/07/24 14:01:45;;;;;;;13.10;3.50;;;;;;;;;;5210543;28;20024;-72
2023/07/24 14:04:15;;;;;;;9.98;3.83;;;;;;;;;;5223749;28;20028;-72
2023/07/24 14:06:45;;;;;;;7.57;3.47;;;;;;;;;;5223813;28;20493;-72
2023/07/24 14:09:16;;;;;;;6.50;2.83;;;;;;;;;;5223764;28;20032;-72
2023/07/24 14:11:46;;;;;;;5.95;2.63;;;;;;;;;;5223820;28;20429;-72
2023/07/24 14:14:17;;;;;;;5.40;3.00;;;;;;;;;;5223668;28;20036;-72
2023/07/24 14:16:48;;;;;;;10.40;4.50;;;;;;;;;;5223211;28;20013;-72
2023/07/24 14:19:18;;;;;;;10.10;5.60;;;;;;;;;;5223666;28;20029;-72
2023/07/24 14:21:49;;;;;;;8.82;4.70;;;;;;;;;;5224013;28;20025;-72
2023/07/24 14:24:19;;;;;;;8.52;4.45;;;;;;;;;;5223660;28;20100;-72
2023/07/24 14:26:50;;;;;;;8.60;4.55;;;;;;;;;;5223393;28;20483;-71
2023/07/24 14:29:20;;;;;;;9.90;5.03;;;;;;;;;;5223569;28;20020;-71
2023/07/24 14:31:50;;;;;;;10.15;5.00;;;;;;;;;;5223795;28;20040;-71
2023/07/24 14:34:21;;;;;;;19.88;6.55;;;;;;;;;;5223459;28;20029;-71
2023/07/24 14:36:52;;;;;;;8.73;5.43;;;;;;;;;;5223447;28;20074;-71
2023/07/24 14:39:22;;;;;;;8.48;5.70;;;;;;;;;;5223004;28;20025;-71
2023/07/24 14:41:53;;;;;;;8.90;5.25;;;;;;;;;;5223400;28;20367;-73
2023/07/24 14:44:23;;;;;;;14.35;6.68;;;;;;;;;;5222402;28;20039;-73
2023/07/24 14:46:53;;;;;;;11.30;5.90;;;;;;;;;;5223469;28;20025;-73
2023/07/24 14:49:24;;;;;;;10.73;6.60;;;;;;;;;;5223541;28;20436;-73
2023/07/24 14:51:54;;;;;;;13.90;6.38;;;;;;;;;;5223271;28;20368;-73
2023/07/24 14:54:24;;;;;;;10.13;6.57;;;;;;;;;;5223579;28;20067;-72
2023/07/24 14:56:55;;;;;;;15.18;6.93;;;;;;;;;;5223002;28;20378;-73
2023/07/24 14:59:26;;;;;;;9.88;5.60;;;;;;;;;;5225185;28;20033;-72
2023/07/24 15:01:56;;;;;;;9.73;5.90;;;;;;;;;;5226944;28;20029;-72
2023/07/24 15:04:26;;;;;;;9.48;5.30;;;;;;;;;;5226615;28;20037;-72